Time;durP1;ratioP1;P1;durP2;ratioP2;P2;SDS_P1;SDS_P2;PMS_P1;PMS_P2;Temp;Humidity;BMP_temperature;BMP_pressure;BME280_temperature;BME280_humidity;BME280_pressure;Samples;Min_cycle;Max_cycle;Signal;HPM_P1;HPM_P2
2023/07/01 00:01:06;;;;;;;15.77;14.25;;;;;;;29.36;62.42;100696.44;5052066;28;66601;-49
2023/07/01 00:03:38;;;;;;;16.75;14.93;;;;;;;29.40;62.36;100697.66;5055336;28;70221;-48
2023/07/01 00:06:10;;;;;;;17.23;15.17;;;;;;;29.43;62.17;100695.56;5055450;28;65456;-46
2023/07/01 00:08:41;;;;;;;21.17;14.35;;;;;;;29.40;62.85;100707.63;5058789;28;70732;-46
2023/07/01 00:11:13;;;;;;;15.60;14.10;;;;;;;29.48;62.42;100703.88;5056890;28;66658;-48
2023/07/01 00:13:44;;;;;;;15.45;14.05;;;;;;;29.43;62.55;100703.66;5058501;28;70206;-47
2023/07/01 00:16:15;;;;;;;15.13;13.55;;;;;;;29.53;62.58;100714.81;5051930;28;67518;-48
2023/07/01 00:18:48;;;;;;;14.88;12.35;;;;;;;29.52;63.02;100715.88;5062045;28;70309;-46
2023/07/01 00:21:19;;;;;;;17.20;12.80;;;;;;;29.45;63.31;100697.00;5052924;28;66666;-48
2023/07/01 00:23:50;;;;;;;14.57;12.15;;;;;;;29.48;62.64;100698.47;5061679;28;70051;-46
2023/07/01 00:26:22;;;;;;;13.37;12.20;;;;;;;29.62;62.81;100722.50;5058413;28;65136;-47
2023/07/01 00:28:54;;;;;;;11.65;10.85;;;;;;;29.64;63.41;100729.56;5060760;28;69376;-46
2023/07/01 00:31:25;;;;;;;12.65;11.63;;;;;;;29.64;63.42;100719.59;5038905;28;66748;-46
2023/07/01 00:33:56;;;;;;;12.35;10.25;;;;;;;29.66;63.24;100728.31;5060734;28;70496;-47
2023/07/01 00:36:28;;;;;;;12.50;11.20;;;;;;;29.68;63.45;100737.06;5056148;28;66472;-47
2023/07/01 00:38:59;;;;;;;13.18;11.27;;;;;;;29.69;66.62;100735.16;5042260;28;70866;-47
2023/07/01 00:41:53;;;;;;;13.32;11.93;;;;;;;29.81;69.87;100745.09;5043695;28;65608;-46
2023/07/01 00:44:24;;;;;;;11.85;10.88;;;;;;;29.88;72.21;100746.94;5056594;28;69254;-49
2023/07/01 00:46:56;;;;;;;15.02;12.20;;;;;;;30.00;67.93;100734.34;5058274;28;66791;-47
2023/07/01 00:49:27;;;;;;;11.30;10.48;;;;;;;30.09;66.45;100746.59;5058470;28;69829;-48
2023/07/01 00:51:58;;;;;;;13.85;9.57;;;;;;;30.12;66.83;100754.28;5059252;28;65492;-46
2023/07/01 00:54:30;;;;;;;10.95;9.45;;;;;;;30.16;66.94;100754.66;5036053;28;70179;-47
2023/07/01 00:57:03;;;;;;;9.60;8.70;;;;;;;30.11;66.80;100747.19;5042383;28;66471;-46
2023/07/01 00:59:35;;;;;;;15.88;10.20;;;;;;;30.19;66.82;100749.63;5060691;28;69015;-45
2023/07/01 01:02:30;;;;;;;15.47;11.00;;;;;;;30.16;67.38;100768.19;5061218;28;65975;-47
2023/07/01 01:05:10;;;;;;;13.57;10.82;;;;;;;29.84;67.89;100696.00;5051945;28;70413;-45
2023/07/01 01:08:08;;;;;;;13.20;11.10;;;;;;;30.32;67.77;100772.28;5036882;28;66601;-46
2023/07/01 01:10:43;;;;;;;13.45;10.38;;;;;;;29.76;73.77;100677.31;5057095;28;70393;-45
2023/07/01 01:13:18;;;;;;;20.10;11.45;;;;;;;29.55;79.28;100650.59;5040607;28;66509;-46
2023/07/01 01:15:49;;;;;;;17.60;11.68;;;;;;;30.27;78.79;100768.34;5050805;28;69671;-46
2023/07/01 01:18:24;;;;;;;15.53;11.30;;;;;;;30.25;79.38;100775.00;5055746;28;66142;-47
2023/07/01 01:20:57;;;;;;;18.38;10.90;;;;;;;29.82;79.93;100702.66;5057344;28;69960;-46
2023/07/01 01:23:37;;;;;;;27.27;11.25;;;;;;;30.22;79.82;100757.34;5060176;28;66152;-47
2023/07/01 01:26:22;;;;;;;17.05;10.15;;;;;;;30.31;79.72;100773.31;5050985;28;70125;-47
2023/07/01 01:28:56;;;;;;;10.55;9.35;;;;;;;29.84;80.79;100693.28;5052277;28;65845;-46
2023/07/01 01:31:28;;;;;;;16.50;8.77;;;;;;;30.26;81.83;100755.88;5057921;28;70234;-45
2023/07/01 01:34:00;;;;;;;10.52;8.80;;;;;;;30.42;81.38;100770.75;5053123;28;66964;-45
2023/07/01 01:36:45;;;;;;;8.18;7.40;;;;;;;30.11;81.81;100725.53;5057001;28;69220;-45
2023/07/01 01:39:20;;;;;;;6.45;5.85;;;;;;;30.45;81.51;100769.44;5055762;28;66997;-46
2023/07/01 01:42:02;;;;;;;8.45;5.88;;;;;;;29.84;80.76;100660.00;5057500;28;70345;-47
2023/07/01 01:44:51;;;;;;;9.52;6.00;;;;;;;30.49;81.43;100762.56;5059894;28;65790;-47
2023/07/01 01:47:29;;;;;;;7.07;5.35;;;;;;;30.55;81.68;100769.78;5057134;28;70405;-49
2023/07/01 01:50:04;;;;;;;6.55;5.45;;;;;;;30.63;81.02;100769.53;5053277;28;66624;-49
2023/07/01 01:52:37;;;;;;;10.80;5.70;;;;;;;30.32;79.54;100699.22;5039991;28;69441;-49
2023/07/01 01:55:10;;;;;;;8.15;5.50;;;;;;;30.08;80.50;100660.25;5037031;28;66751;-46
2023/07/01 01:57:42;;;;;;;7.53;5.28;;;;;;;30.75;79.52;100768.78;5040258;28;69903;-47
2023/07/01 02:00:14;;;;;;;7.40;5.57;;;;;;;30.64;79.94;100749.50;5053858;28;65919;-50
2023/07/01 02:02:45;;;;;;;6.50;5.03;;;;;;;30.41;79.84;100714.13;5020893;28;69572;-46
2023/07/01 02:05:18;;;;;;;5.70;4.93;;;;;;;30.75;79.67;100775.03;5053684;28;66412;-47
2023/07/01 02:07:51;;;;;;;6.00;4.65;;;;;;;30.71;78.78;100769.25;5056205;28;70570;-48
2023/07/01 02:10:22;;;;;;;9.93;5.50;;;;;;;30.78;79.10;100784.59;5054678;28;65256;-47
2023/07/01 02:12:53;;;;;;;6.13;5.55;;;;;;;30.82;78.24;100802.94;5047755;28;70127;-47
2023/07/01 02:15:24;;;;;;;5.50;5.00;;;;;;;30.79;78.51;100797.09;5055540;28;66335;-46
2023/07/01 02:17:58;;;;;;;5.68;5.28;;;;;;;30.77;78.16;100793.78;5051662;28;70250;-47
2023/07/01 02:20:30;;;;;;;7.38;5.50;;;;;;;30.74;78.49;100781.50;5038845;28;66510;-47
2023/07/01 02:23:02;;;;;;;8.23;5.38;;;;;;;30.78;78.52;100790.84;5054993;28;69411;-49
2023/07/01 02:25:34;;;;;;;6.68;6.10;;;;;;;30.94;76.89;100803.84;5059666;28;66614;-48
2023/07/01 02:28:06;;;;;;;5.88;5.38;;;;;;;31.08;75.56;100803.72;5058577;28;69444;-49
2023/07/01 02:30:37;;;;;;;4.80;4.50;;;;;;;31.15;75.07;100801.78;5035587;28;66535;-49
2023/07/01 02:33:08;;;;;;;5.60;5.20;;;;;;;31.03;74.38;100776.47;5058017;28;70263;-49
2023/07/01 02:35:40;;;;;;;5.27;4.87;;;;;;;31.15;74.21;100794.50;5061452;28;66728;-48
2023/07/01 02:38:12;;;;;;;6.93;4.25;;;;;;;31.02;73.72;100781.06;5057360;28;70820;-48
2023/07/01 02:40:43;;;;;;;5.85;5.35;;;;;;;31.36;73.73;100819.53;5059098;28;66410;-46
2023/07/01 02:43:15;;;;;;;6.38;5.35;;;;;;;31.30;73.85;100809.56;5058987;28;70624;-48
2023/07/01 02:45:46;;;;;;;5.68;5.28;;;;;;;31.42;73.74;100823.22;5060360;28;67063;-47
2023/07/01 02:48:17;;;;;;;7.28;5.35;;;;;;;31.42;73.61;100824.03;5042351;28;69964;-48
2023/07/01 02:50:49;;;;;;;7.47;5.97;;;;;;;31.47;73.52;100837.75;5056728;28;66326;-49
2023/07/01 02:53:20;;;;;;;5.25;4.70;;;;;;;31.38;73.36;100806.56;5039351;28;70416;-48
2023/07/01 02:55:51;;;;;;;7.13;5.23;;;;;;;31.55;73.15;100823.88;5058193;28;66519;-46
2023/07/01 02:58:23;;;;;;;5.88;5.28;;;;;;;31.59;73.06;100818.84;5055349;28;70239;-46
2023/07/01 03:00:54;;;;;;;5.95;5.40;;;;;;;31.61;72.71;100817.56;5039645;28;65829;-47
2023/07/01 03:03:26;;;;;;;6.15;5.65;;;;;;;31.57;72.74;100816.38;5057636;28;70131;-45
2023/07/01 03:05:58;;;;;;;8.65;5.45;;;;;;;31.59;72.29;100821.53;5056783;28;66160;-45
2023/07/01 03:08:29;;;;;;;7.43;5.82;;;;;;;31.72;72.33;100817.84;5032454;28;70151;-47
2023/07/01 03:11:00;;;;;;;5.82;5.18;;;;;;;31.68;72.29;100814.78;5058150;28;67359;-46
2023/07/01 03:13:32;;;;;;;5.75;5.03;;;;;;;31.75;71.94;100825.53;5056669;28;70497;-46
2023/07/01 03:16:06;;;;;;;7.95;5.68;;;;;;;31.75;71.85;100823.66;5053414;28;67315;-46
2023/07/01 03:18:37;;;;;;;8.38;6.05;;;;;;;31.81;71.71;100816.47;5048871;28;70345;-45
2023/07/01 03:21:09;;;;;;;6.20;5.77;;;;;;;31.81;71.64;100813.78;5034886;28;66818;-45
2023/07/01 03:23:40;;;;;;;5.85;5.50;;;;;;;31.85;71.59;100823.13;5039853;28;70614;-47
2023/07/01 03:26:12;;;;;;;6.03;5.63;;;;;;;31.81;71.69;100805.63;5050279;28;66582;-45
2023/07/01 03:28:43;;;;;;;5.88;5.45;;;;;;;31.86;71.60;100819.34;5038381;28;70140;-45
2023/07/01 03:31:14;;;;;;;6.20;5.80;;;;;;;31.90;71.47;100814.28;5041880;28;66165;-46
2023/07/01 03:33:45;;;;;;;6.53;6.05;;;;;;;31.90;71.20;100807.00;5057031;28;70448;-46
2023/07/01 03:36:17;;;;;;;6.97;6.13;;;;;;;31.94;71.15;100816.34;5050753;28;66634;-46
2023/07/01 03:38:49;;;;;;;6.57;6.07;;;;;;;31.98;70.95;100814.84;5042126;28;69334;-49
2023/07/01 03:41:20;;;;;;;8.07;5.95;;;;;;;31.92;70.96;100804.88;5051759;28;66807;-50
2023/07/01 03:43:51;;;;;;;5.90;5.50;;;;;;;31.95;71.00;100809.03;5058172;28;70462;-46
2023/07/01 03:46:22;;;;;;;6.28;5.88;;;;;;;32.00;70.89;100811.88;5058094;28;65371;-47
2023/07/01 03:48:55;;;;;;;7.25;5.78;;;;;;;32.00;70.81;100803.75;5055986;28;70639;-47
2023/07/01 03:51:27;;;;;;;6.45;6.05;;;;;;;32.03;70.81;100809.53;5053954;28;66712;-46
2023/07/01 03:53:58;;;;;;;7.03;5.90;;;;;;;31.97;70.53;100798.78;5054627;28;70198;-48
2023/07/01 03:56:30;;;;;;;14.10;6.28;;;;;;;31.70;72.72;100800.97;5053194;27;65094;-46
2023/07/01 03:59:01;;;;;;;6.45;6.00;;;;;;;31.45;73.61;100782.91;5042697;28;69666;-48
2023/07/01 04:01:36;;;;;;;7.10;6.20;;;;;;;31.55;73.64;100790.53;5056577;28;66728;-50
2023/07/01 04:04:07;;;;;;;6.75;6.15;;;;;;;30.92;74.44;100713.03;5025494;28;70682;-47
2023/07/01 04:06:39;;;;;;;7.40;6.80;;;;;;;31.68;73.49;100811.22;5058671;28;66520;-46
2023/07/01 04:09:13;;;;;;;6.22;5.90;;;;;;;31.51;74.86;100794.75;5057901;28;69885;-45
2023/07/01 04:11:45;;;;;;;6.82;6.18;;;;;;;31.53;74.62;100788.03;5060473;28;66043;-49
2023/07/01 04:14:16;;;;;;;7.53;6.82;;;;;;;31.39;74.88;100770.28;5054046;28;70578;-47
2023/07/01 04:16:48;;;;;;;10.97;6.73;;;;;;;31.64;74.67;100791.03;5061759;28;66377;-48
2023/07/01 04:19:20;;;;;;;6.53;6.03;;;;;;;31.58;74.92;100780.06;5058947;28;69873;-47
2023/07/01 04:21:52;;;;;;;6.63;6.20;;;;;;;31.65;74.48;100789.97;5054226;28;66133;-47
2023/07/01 04:24:23;;;;;;;7.35;6.63;;;;;;;31.60;75.14;100787.97;5057900;28;69895;-48
2023/07/01 04:26:55;;;;;;;9.18;6.28;;;;;;;31.61;75.02;100785.00;5060795;28;65455;-46
2023/07/01 04:29:26;;;;;;;6.85;6.35;;;;;;;31.61;74.73;100790.44;5057414;28;71151;-49
2023/07/01 04:31:58;;;;;;;7.27;6.60;;;;;;;31.69;74.61;100789.31;5058153;28;66581;-49
2023/07/01 04:34:29;;;;;;;6.78;6.28;;;;;;;31.61;74.80;100782.31;5057751;28;70166;-48
2023/07/01 04:37:00;;;;;;;7.38;6.72;;;;;;;31.77;74.42;100790.88;5056907;28;66228;-49
2023/07/01 04:39:32;;;;;;;7.85;6.45;;;;;;;31.72;74.98;100774.47;5059800;28;69890;-47
2023/07/01 04:42:04;;;;;;;6.63;6.15;;;;;;;31.91;73.40;100776.13;5058061;28;67893;-48
2023/07/01 04:44:34;;;;;;;;;;;;;;;31.83;74.42;100782.66;5060294;28;70299;-49
2023/07/01 04:47:05;;;;;;;5.90;5.47;;;;;;;32.18;72.71;100767.56;5055085;28;66762;-48
2023/07/01 04:49:37;;;;;;;5.95;5.35;;;;;;;32.23;72.34;100759.56;5022997;28;70096;-47
2023/07/01 04:52:09;;;;;;;6.10;5.73;;;;;;;32.29;72.21;100758.66;5058392;28;66199;-50
2023/07/01 04:54:40;;;;;;;5.85;5.55;;;;;;;32.34;72.07;100768.81;5057788;28;70713;-49
2023/07/01 04:57:11;;;;;;;6.83;6.33;;;;;;;32.36;71.71;100753.94;5055265;28;65945;-48
2023/07/01 04:59:42;;;;;;;6.25;5.85;;;;;;;32.38;71.68;100746.41;5059946;28;69976;-48
2023/07/01 05:02:14;;;;;;;7.05;6.32;;;;;;;32.33;71.57;100738.13;5054769;28;66785;-48
2023/07/01 05:04:45;;;;;;;;;;;;;;;32.16;72.32;100753.44;5060465;28;70158;-48
2023/07/01 05:07:16;;;;;;;6.65;6.22;;;;;;;32.31;71.10;100718.50;5060875;28;65805;-47
2023/07/01 05:09:47;;;;;;;6.82;6.22;;;;;;;32.41;70.92;100739.69;5058594;28;69436;-46
2023/07/01 05:12:19;;;;;;;6.77;6.17;;;;;;;32.31;71.02;100704.94;5040481;28;66980;-47
2023/07/01 05:14:50;;;;;;;8.45;7.60;;;;;;;32.46;70.62;100726.25;5057684;28;70193;-48
2023/07/01 05:17:21;;;;;;;8.27;7.47;;;;;;;32.23;70.99;100743.28;5059546;28;66199;-48
2023/07/01 05:19:53;;;;;;;8.73;7.88;;;;;;;31.88;72.24;100713.34;5039029;28;69253;-50
2023/07/01 05:22:24;;;;;;;21.80;7.70;;;;;;;31.97;72.84;100729.06;5059450;28;66682;-48
2023/07/01 05:24:55;;;;;;;8.43;7.47;;;;;;;31.95;73.44;100736.59;5062220;28;68914;-49
2023/07/01 05:27:27;;;;;;;11.17;7.87;;;;;;;31.72;72.12;100721.06;5057072;28;65578;-48
2023/07/01 05:29:58;;;;;;;7.82;7.22;;;;;;;31.57;69.62;100735.03;5056463;28;68161;-48
2023/07/01 05:32:29;;;;;;;7.68;6.97;;;;;;;31.40;67.95;100723.16;5057992;28;65763;-48
2023/07/01 05:35:02;;;;;;;7.22;6.72;;;;;;;31.37;66.80;100726.28;5056012;28;69738;-46
2023/07/01 05:37:33;;;;;;;6.28;5.88;;;;;;;31.21;65.25;100729.63;5055980;28;65672;-48
2023/07/01 05:40:05;;;;;;;6.07;5.68;;;;;;;31.11;63.85;100730.94;5055301;28;70075;-48
2023/07/01 05:42:36;;;;;;;6.10;5.60;;;;;;;31.02;63.31;100720.66;5059883;28;65304;-49
2023/07/01 05:45:08;;;;;;;9.18;6.13;;;;;;;30.92;61.86;100718.44;5041493;28;69987;-49
2023/07/01 05:47:39;;;;;;;10.60;5.80;;;;;;;30.90;61.71;100709.75;5052440;28;66051;-49
2023/07/01 05:50:11;;;;;;;6.95;5.95;;;;;;;30.86;60.73;100705.81;5054456;28;70392;-50
2023/07/01 05:52:42;;;;;;;8.02;5.47;;;;;;;30.71;60.45;100693.44;5050963;28;66169;-51
2023/07/01 05:55:13;;;;;;;7.15;6.45;;;;;;;30.75;59.45;100692.97;5040102;28;69687;-51
2023/07/01 05:57:44;;;;;;;6.40;6.00;;;;;;;30.71;58.76;100688.00;5054491;28;65717;-48
2023/07/01 06:00:16;;;;;;;8.60;5.15;;;;;;;30.66;57.95;100685.16;5051787;28;69645;-50
2023/07/01 06:02:47;;;;;;;8.30;6.03;;;;;;;30.66;57.41;100685.16;5054169;28;66113;-48
2023/07/01 06:05:19;;;;;;;10.43;5.60;;;;;;;30.64;58.46;100687.25;5058481;28;70068;-49
2023/07/01 06:07:50;;;;;;;33.67;6.07;;;;;;;30.63;59.80;100677.47;5059268;28;66533;-48
2023/07/01 06:10:22;;;;;;;17.80;6.53;;;;;;;30.55;58.85;100671.53;5060089;28;69244;-48
2023/07/01 06:12:53;;;;;;;10.52;6.45;;;;;;;30.44;57.82;100654.97;5061822;28;66361;-46
2023/07/01 06:15:24;;;;;;;9.50;5.50;;;;;;;30.47;57.32;100659.09;5059769;28;69875;-48
2023/07/01 06:17:55;;;;;;;15.40;6.07;;;;;;;30.43;56.82;100653.31;5055427;28;66747;-48
2023/07/01 06:20:27;;;;;;;9.63;5.63;;;;;;;30.42;56.12;100648.97;5058847;28;70335;-47
2023/07/01 06:22:58;;;;;;;7.03;5.53;;;;;;;30.40;55.14;100647.53;5058162;28;65581;-48
2023/07/01 06:25:29;;;;;;;8.32;5.72;;;;;;;30.05;55.28;100596.59;5054880;28;70255;-48
2023/07/01 06:28:00;;;;;;;8.97;5.03;;;;;;;30.01;54.65;100585.41;5054848;28;66522;-47
2023/07/01 06:30:31;;;;;;;6.25;5.60;;;;;;;30.14;54.12;100603.38;5060334;28;69930;-49
2023/07/01 06:33:03;;;;;;;5.60;5.03;;;;;;;30.29;53.71;100619.31;5061661;28;66140;-48
2023/07/01 06:35:34;;;;;;;5.00;4.45;;;;;;;29.78;53.07;100545.47;5058862;28;69944;-48
2023/07/01 06:38:06;;;;;;;8.30;5.27;;;;;;;30.24;52.83;100617.25;5056780;28;66690;-49
2023/07/01 06:40:37;;;;;;;5.45;5.07;;;;;;;30.14;52.50;100595.25;5051171;28;69588;-48
2023/07/01 06:43:09;;;;;;;5.13;4.72;;;;;;;30.17;52.33;100592.13;5059009;28;66914;-48
2023/07/01 06:45:40;;;;;;;5.63;5.18;;;;;;;30.12;51.79;100578.44;5061327;28;70142;-51
2023/07/01 06:48:11;;;;;;;4.90;4.40;;;;;;;29.94;51.29;100540.53;5064919;28;66556;-48
2023/07/01 06:50:43;;;;;;;5.53;5.18;;;;;;;30.08;51.16;100571.81;5058130;28;69259;-48
2023/07/01 06:53:15;;;;;;;5.18;4.88;;;;;;;30.00;51.27;100545.88;5058126;28;65545;-49
2023/07/01 06:55:46;;;;;;;5.63;5.22;;;;;;;30.01;50.81;100552.13;5054637;28;69522;-51
2023/07/01 06:58:17;;;;;;;5.40;5.10;;;;;;;30.06;50.20;100561.22;5059055;28;66257;-49
2023/07/01 07:00:48;;;;;;;5.68;5.25;;;;;;;30.03;50.25;100563.53;5057698;28;70336;-50
2023/07/01 07:03:20;;;;;;;4.97;4.67;;;;;;;29.98;50.08;100566.09;5050635;28;66133;-50
2023/07/01 07:05:54;;;;;;;;;;;;;;;29.82;49.99;100571.00;5056953;28;70346;-50
2023/07/01 07:08:26;;;;;;;14.20;4.85;;;;;;;29.98;49.62;100601.25;5055178;28;65629;-49
2023/07/01 07:10:58;;;;;;;4.63;4.32;;;;;;;29.99;50.52;100608.31;5058860;28;69751;-48
2023/07/01 07:13:30;;;;;;;5.70;5.28;;;;;;;29.97;50.05;100608.50;5059250;28;66312;-51
2023/07/01 07:16:01;;;;;;;4.85;4.55;;;;;;;29.64;50.84;100568.22;5034500;28;69411;-48
2023/07/01 07:18:32;;;;;;;4.67;4.40;;;;;;;29.95;50.38;100634.13;5057234;28;66695;-49
2023/07/01 07:21:04;;;;;;;5.10;4.70;;;;;;;29.91;50.60;100649.97;5056301;28;70047;-49
2023/07/01 07:23:35;;;;;;;4.43;4.10;;;;;;;29.78;50.39;100629.28;5055394;28;66488;-49
2023/07/01 07:26:07;;;;;;;3.93;3.73;;;;;;;29.78;50.33;100640.09;5054232;28;70174;-49
2023/07/01 07:28:38;;;;;;;3.90;3.70;;;;;;;29.70;49.92;100644.91;5058461;28;65217;-47
2023/07/01 07:31:09;;;;;;;4.15;3.85;;;;;;;29.75;50.26;100632.38;5058105;28;69865;-48
2023/07/01 07:33:41;;;;;;;3.60;3.38;;;;;;;29.78;50.24;100629.28;5066251;28;65451;-48
2023/07/01 07:36:12;;;;;;;3.28;2.97;;;;;;;29.74;49.93;100622.63;5065938;28;69121;-48
2023/07/01 07:38:43;;;;;;;5.45;4.13;;;;;;;29.69;49.16;100614.34;5064617;28;65859;-47
2023/07/01 07:41:15;;;;;;;3.25;3.05;;;;;;;29.69;48.55;100625.16;5062580;28;69612;-47
2023/07/01 07:43:47;;;;;;;4.00;3.70;;;;;;;29.69;49.83;100632.44;5065298;28;66111;-49
2023/07/01 07:46:18;;;;;;;4.72;3.80;;;;;;;29.65;49.37;100618.53;5064043;28;70451;-49
2023/07/01 07:48:50;;;;;;;3.38;3.17;;;;;;;29.55;49.45;100596.53;5058343;28;65473;-48
2023/07/01 07:51:21;;;;;;;;;;;;;;;29.49;49.34;100609.03;5047331;28;70147;-49
2023/07/01 07:53:53;;;;;;;3.22;2.92;;;;;;;29.65;48.37;100626.66;5062514;28;66802;-47
2023/07/01 07:56:24;;;;;;;3.00;2.80;;;;;;;29.60;49.32;100626.44;5057290;28;70280;-49
2023/07/01 07:58:55;;;;;;;3.75;3.17;;;;;;;29.65;49.38;100648.28;5045253;28;65958;-49
2023/07/01 08:01:27;;;;;;;6.47;3.10;;;;;;;29.58;49.07;100633.94;5012785;28;69274;-47
2023/07/01 08:03:59;;;;;;;3.05;2.83;;;;;;;29.61;48.90;100638.91;5061215;28;65383;-48
2023/07/01 08:06:30;;;;;;;3.65;3.35;;;;;;;29.61;50.13;100631.66;5060476;28;70286;-48
2023/07/01 08:09:02;;;;;;;3.45;3.25;;;;;;;29.60;50.46;100634.56;5065802;28;66075;-48
2023/07/01 08:11:34;;;;;;;3.97;3.75;;;;;;;29.49;49.88;100629.84;5059828;28;70725;-48
2023/07/01 08:14:05;;;;;;;3.83;3.50;;;;;;;29.53;49.77;100641.84;5059096;28;65721;-48
2023/07/01 08:16:37;;;;;;;3.47;3.20;;;;;;;28.93;49.01;100545.75;5061323;28;69208;-48
2023/07/01 08:19:09;;;;;;;3.65;3.45;;;;;;;29.48;49.07;100633.59;5042673;28;66524;-47
2023/07/01 08:21:40;;;;;;;3.50;3.20;;;;;;;28.99;48.26;100567.53;5061247;28;69021;-50
2023/07/01 08:24:12;;;;;;;3.58;3.38;;;;;;;29.43;48.15;100657.72;5058586;28;65274;-50
2023/07/01 08:26:44;;;;;;;3.50;3.20;;;;;;;29.42;48.40;100675.81;5052098;28;70235;-49
2023/07/01 08:29:19;;;;;;;3.20;3.00;;;;;;;29.41;48.02;100666.03;5062863;28;43112;-51
2023/07/01 08:31:50;;;;;;;8.27;3.55;;;;;;;29.34;47.79;100641.78;5065874;28;69563;-49
2023/07/01 08:34:22;;;;;;;3.67;3.38;;;;;;;29.26;48.24;100641.19;5025558;28;66780;-50
2023/07/01 08:36:53;;;;;;;3.80;3.50;;;;;;;29.31;48.19;100671.06;5053146;28;69131;-48
2023/07/01 08:39:25;;;;;;;3.43;3.13;;;;;;;28.80;47.77;100594.38;5062663;28;65852;-48
2023/07/01 08:42:06;;;;;;;5.13;3.05;;;;;;;28.44;52.93;100508.56;5056573;28;69885;-48
2023/07/01 08:44:41;;;;;;;9.35;3.80;;;;;;;29.72;60.98;100678.78;5061871;28;66236;-47
2023/07/01 08:47:15;;;;;;;7.97;4.25;;;;;;;29.93;62.78;100696.56;5054637;28;70419;-47
2023/07/01 08:49:49;;;;;;;5.05;4.57;;;;;;;30.19;64.68;100698.22;5061532;28;66109;-47
2023/07/01 08:52:22;;;;;;;4.50;4.10;;;;;;;30.28;65.78;100688.84;5056644;28;70230;-47
2023/07/01 08:54:54;;;;;;;4.35;4.05;;;;;;;30.40;66.16;100677.28;5059036;28;66126;-49
2023/07/01 08:57:25;;;;;;;6.18;4.45;;;;;;;30.42;66.87;100664.34;5053166;28;69538;-48
2023/07/01 08:59:57;;;;;;;11.27;4.55;;;;;;;30.57;67.82;100678.38;5058567;28;65113;-49
2023/07/01 09:02:29;;;;;;;4.60;4.32;;;;;;;30.66;67.45;100674.31;5054833;28;70410;-47
2023/07/01 09:05:00;;;;;;;5.07;4.68;;;;;;;30.69;67.84;100673.88;5042993;28;66648;-48
2023/07/01 09:07:32;;;;;;;8.32;4.55;;;;;;;30.72;68.37;100684.25;5057700;28;71138;-47
2023/07/01 09:10:04;;;;;;;5.28;4.85;;;;;;;30.79;68.15;100684.19;5059788;28;66398;-48
2023/07/01 09:12:36;;;;;;;11.73;5.60;;;;;;;30.82;68.07;100683.78;5054969;28;70220;-49
2023/07/01 09:15:08;;;;;;;12.93;5.55;;;;;;;30.90;69.41;100712.44;5058510;28;66274;-48
2023/07/01 09:17:42;;;;;;;24.15;6.25;;;;;;;30.65;70.62;100675.38;5056170;28;69476;-47
2023/07/01 09:20:14;;;;;;;6.68;6.00;;;;;;;30.72;72.07;100689.66;5054829;28;65490;-48
2023/07/01 09:22:47;;;;;;;17.02;7.45;;;;;;;30.62;72.22;100675.84;5053029;28;70644;-47
2023/07/01 09:25:36;;;;;;;13.80;6.38;;;;;;;30.59;73.36;100687.09;5056987;28;66825;-45
2023/07/01 09:28:08;;;;;;;14.68;6.72;;;;;;;30.44;74.21;100665.78;5060175;28;68862;-46
2023/07/01 09:30:40;;;;;;;13.82;7.32;;;;;;;29.90;75.01;100583.41;5060062;28;66117;-46
2023/07/01 09:33:15;;;;;;;10.75;6.72;;;;;;;30.00;74.69;100602.66;5045875;28;70452;-45
2023/07/01 09:35:47;;;;;;;19.50;7.85;;;;;;;30.44;75.97;100714.50;5056107;28;65607;-46
2023/07/01 09:38:18;;;;;;;;;;;;;;;30.22;77.23;100705.94;5058086;28;69902;-45
2023/07/01 09:40:50;;;;;;;16.08;8.48;;;;;;;30.38;77.62;100703.75;5052332;28;65388;-46
2023/07/01 09:43:41;;;;;;;;;;;;;;;30.23;78.64;100707.59;5058603;28;70058;-45
2023/07/01 09:46:12;;;;;;;10.05;8.95;;;;;;;30.38;78.21;100714.56;5066976;28;66178;-46
2023/07/01 09:48:54;;;;;;;25.05;8.73;;;;;;;29.78;78.67;100626.56;5060400;28;69136;-45
2023/07/01 09:51:27;;;;;;;12.57;8.68;;;;;;;30.24;78.12;100720.06;5061349;28;66506;-44
2023/07/01 09:53:58;;;;;;;16.52;8.55;;;;;;;30.22;78.30;100721.34;5061007;28;70512;-45
2023/07/01 09:56:29;;;;;;;13.63;7.20;;;;;;;29.98;77.63;100693.22;5059458;28;66435;-44
2023/07/01 09:59:01;;;;;;;10.07;8.25;;;;;;;30.07;78.29;100729.75;5059440;28;69438;-44
2023/07/01 10:01:32;;;;;;;9.48;7.88;;;;;;;29.98;78.72;100720.25;5061298;28;64775;-46
2023/07/01 10:04:04;;;;;;;13.45;8.57;;;;;;;29.92;78.93;100731.91;5061567;28;70099;-45
2023/07/01 10:06:35;;;;;;;9.23;8.35;;;;;;;29.91;79.40;100741.09;5061629;28;66351;-46
2023/07/01 10:09:06;;;;;;;8.20;7.43;;;;;;;29.90;79.01;100744.84;5061304;28;70127;-45
2023/07/01 10:11:39;;;;;;;14.98;9.85;;;;;;;29.75;79.08;100723.47;5060232;28;66430;-44
2023/07/01 10:14:10;;;;;;;;;;;;;;;29.70;80.22;100739.53;5058270;28;70342;-46
2023/07/01 10:16:47;;;;;;;20.08;10.07;;;;;;;29.74;80.26;100719.97;5060178;28;65962;-47
2023/07/01 10:19:29;;;;;;;18.00;9.63;;;;;;;29.75;80.00;100721.59;5058068;28;71086;-45
2023/07/01 10:22:23;;;;;;;21.42;10.00;;;;;;;29.87;79.92;100726.34;5059146;28;66543;-44
2023/07/01 10:24:55;;;;;;;18.05;11.68;;;;;;;29.96;80.72;100723.16;5041289;28;70468;-45
2023/07/01 10:27:42;;;;;;;21.75;10.15;;;;;;;30.03;80.46;100717.69;5042360;28;65971;-44
2023/07/01 10:30:15;;;;;;;18.33;9.48;;;;;;;30.21;81.29;100714.25;5059190;28;69514;-45
2023/07/01 10:32:46;;;;;;;16.02;9.02;;;;;;;30.02;80.36;100662.78;5064679;28;66736;-46
2023/07/01 10:35:18;;;;;;;16.02;9.27;;;;;;;30.34;80.06;100699.81;5060941;28;70436;-50
2023/07/01 10:38:23;;;;;;;16.83;8.88;;;;;;;30.37;79.88;100691.25;5058031;28;66396;-44
2023/07/01 10:40:58;;;;;;;20.48;9.27;;;;;;;30.44;79.91;100686.63;5059367;28;69844;-47
2023/07/01 10:43:29;;;;;;;;;;;;;;;30.35;80.71;100680.66;5058499;28;66617;-43
2023/07/01 10:46:23;;;;;;;18.38;9.05;;;;;;;30.53;80.05;100685.28;5063099;28;69448;-45
2023/07/01 10:49:03;;;;;;;42.88;9.38;;;;;;;30.55;81.08;100688.59;5057814;28;66679;-45
2023/07/01 10:51:46;;;;;;;21.88;9.38;;;;;;;30.55;81.02;100677.75;5040352;28;70151;-44
2023/07/01 10:54:35;;;;;;;23.95;9.57;;;;;;;30.47;81.53;100669.94;5039035;28;65164;-44
2023/07/01 10:57:19;;;;;;;7.90;7.35;;;;;;;30.36;78.71;100636.28;5058472;28;70455;-44
2023/07/01 10:59:51;;;;;;;10.13;7.47;;;;;;;30.89;77.22;100711.59;5053227;28;65628;-44
2023/07/01 11:02:39;;;;;;;7.40;6.53;;;;;;;30.91;77.05;100733.88;5059215;28;69057;-44
2023/07/01 11:05:11;;;;;;;8.27;6.47;;;;;;;31.06;76.11;100743.50;5058151;28;66843;-44
2023/07/01 11:07:44;;;;;;;10.35;6.90;;;;;;;31.11;75.81;100757.22;5055803;28;69250;-47
2023/07/01 11:10:16;;;;;;;16.73;6.70;;;;;;;31.15;75.52;100764.69;5056170;28;65479;-45
2023/07/01 11:12:49;;;;;;;7.15;6.45;;;;;;;31.16;75.45;100771.75;5062341;28;69919;-52
2023/07/01 11:15:21;;;;;;;14.57;7.72;;;;;;;30.90;78.93;100772.03;5063083;28;66629;-45
2023/07/01 11:17:54;;;;;;;20.30;8.60;;;;;;;30.90;79.67;100782.88;5055356;28;70329;-44
2023/07/01 11:20:26;;;;;;;10.27;8.90;;;;;;;30.88;79.69;100787.66;5056766;28;66442;-46
2023/07/01 11:22:58;;;;;;;18.55;7.95;;;;;;;30.76;80.48;100781.28;5059035;28;70224;-43
2023/07/01 11:25:29;;;;;;;11.43;8.57;;;;;;;30.84;81.01;100786.44;5053532;28;66899;-45
2023/07/01 11:28:00;;;;;;;15.93;8.65;;;;;;;30.87;80.84;100777.88;5060267;28;69367;-44
2023/07/01 11:30:32;;;;;;;27.15;7.57;;;;;;;30.89;81.46;100776.59;5051787;28;67170;-45
2023/07/01 11:33:12;;;;;;;40.45;8.27;;;;;;;30.89;81.95;100773.06;5058858;28;70553;-55
2023/07/01 11:35:55;;;;;;;46.53;9.98;;;;;;;30.81;82.10;100751.69;5059275;28;66116;-49
2023/07/01 11:38:27;;;;;;;20.70;8.27;;;;;;;30.72;82.21;100749.22;5040030;28;70985;-47
2023/07/01 11:40:58;;;;;;;33.22;7.68;;;;;;;30.93;82.51;100774.28;5055718;28;66631;-45
2023/07/01 11:43:29;;;;;;;36.88;8.93;;;;;;;30.87;81.97;100764.31;5052876;28;70059;-46
2023/07/01 11:46:01;;;;;;;18.77;7.23;;;;;;;30.50;80.58;100735.25;5056775;28;66180;-46
2023/07/01 11:48:33;;;;;;;11.50;7.78;;;;;;;30.61;79.45;100777.03;5054208;28;69546;-47
2023/07/01 11:51:04;;;;;;;23.40;7.45;;;;;;;30.47;76.68;100791.72;5054235;28;66384;-49